sensor_id;sensor_type;location;lat;lon;timestamp;P1;durP1;ratioP1;P2;durP2;ratioP2
58354;SDS011;44160;49.080;19.302;2023-02-10T00:01:52;143.93;;;55.08;;
58354;SDS011;44160;49.080;19.302;2023-02-10T00:04:19;146.65;;;55.25;;
58354;SDS011;44160;49.080;19.302;2023-02-10T00:07:20;137.95;;;53.50;;
58354;SDS011;44160;49.080;19.302;2023-02-10T00:13:13;130.50;;;50.03;;
58354;SDS011;44160;49.080;19.302;2023-02-10T00:15:40;146.38;;;55.60;;
58354;SDS011;44160;49.080;19.302;2023-02-10T00:18:11;100.45;;;43.15;;
58354;SDS011;44160;49.080;19.302;2023-02-10T00:20:40;155.60;;;56.05;;
58354;SDS011;44160;49.080;19.302;2023-02-10T00:23:16;145.38;;;52.30;;
58354;SDS011;44160;49.080;19.302;2023-02-10T00:25:42;130.45;;;51.45;;
58354;SDS011;44160;49.080;19.302;2023-02-10T00:28:08;111.75;;;50.25;;
58354;SDS011;44160;49.080;19.302;2023-02-10T00:30:35;146.18;;;59.25;;
58354;SDS011;44160;49.080;19.302;2023-02-10T00:35:54;107.65;;;39.08;;
58354;SDS011;44160;49.080;19.302;2023-02-10T00:42:18;147.65;;;54.88;;
58354;SDS011;44160;49.080;19.302;2023-02-10T00:45:23;138.68;;;53.53;;
58354;SDS011;44160;49.080;19.302;2023-02-10T00:50:58;81.15;;;35.05;;
58354;SDS011;44160;49.080;19.302;2023-02-10T00:53:25;99.95;;;42.92;;
58354;SDS011;44160;49.080;19.302;2023-02-10T00:55:51;110.82;;;46.05;;
58354;SDS011;44160;49.080;19.302;2023-02-10T00:58:23;67.40;;;33.20;;
58354;SDS011;44160;49.080;19.302;2023-02-10T01:00:52;107.65;;;44.80;;
58354;SDS011;44160;49.080;19.302;2023-02-10T01:03:22;135.38;;;50.50;;
58354;SDS011;44160;49.080;19.302;2023-02-10T01:39:41;141.15;;;45.72;;
58354;SDS011;44160;49.080;19.302;2023-02-10T01:42:14;110.80;;;44.15;;
58354;SDS011;44160;49.080;19.302;2023-02-10T01:47:44;86.15;;;37.67;;
58354;SDS011;44160;49.080;19.302;2023-02-10T01:50:16;113.18;;;46.65;;
58354;SDS011;44160;49.080;19.302;2023-02-10T01:52:43;117.88;;;47.10;;
58354;SDS011;44160;49.080;19.302;2023-02-10T01:55:11;91.18;;;38.10;;
58354;SDS011;44160;49.080;19.302;2023-02-10T01:57:38;104.82;;;47.60;;
58354;SDS011;44160;49.080;19.302;2023-02-10T02:00:07;131.65;;;53.33;;
58354;SDS011;44160;49.080;19.302;2023-02-10T02:02:34;138.77;;;51.35;;
58354;SDS011;44160;49.080;19.302;2023-02-10T02:05:05;120.75;;;48.78;;
58354;SDS011;44160;49.080;19.302;2023-02-10T02:07:32;136.25;;;51.53;;
58354;SDS011;44160;49.080;19.302;2023-02-10T02:43:27;96.60;;;37.72;;
58354;SDS011;44160;49.080;19.302;2023-02-10T04:04:29;87.53;;;36.85;;
58354;SDS011;44160;49.080;19.302;2023-02-10T04:06:59;90.97;;;36.40;;
58354;SDS011;44160;49.080;19.302;2023-02-10T04:09:26;103.57;;;44.63;;
58354;SDS011;44160;49.080;19.302;2023-02-10T04:11:54;132.43;;;52.42;;
58354;SDS011;44160;49.080;19.302;2023-02-10T04:14:31;61.60;;;28.75;;
58354;SDS011;44160;49.080;19.302;2023-02-10T07:29:57;107.05;;;38.40;;
58354;SDS011;44160;49.080;19.302;2023-02-10T07:32:23;88.57;;;37.80;;
58354;SDS011;44160;49.080;19.302;2023-02-10T07:34:49;91.43;;;36.28;;
58354;SDS011;44160;49.080;19.302;2023-02-10T07:37:16;62.83;;;31.83;;
58354;SDS011;44160;49.080;19.302;2023-02-10T07:39:42;106.60;;;41.03;;
58354;SDS011;44160;49.080;19.302;2023-02-10T07:42:11;112.70;;;45.10;;
58354;SDS011;44160;49.080;19.302;2023-02-10T07:44:37;109.30;;;41.85;;
58354;SDS011;44160;49.080;19.302;2023-02-10T07:47:04;102.13;;;41.35;;
58354;SDS011;44160;49.080;19.302;2023-02-10T07:49:30;96.75;;;39.63;;
58354;SDS011;44160;49.080;19.302;2023-02-10T07:51:56;104.07;;;40.50;;
58354;SDS011;44160;49.080;19.302;2023-02-10T07:54:23;106.30;;;40.95;;
58354;SDS011;44160;49.080;19.302;2023-02-10T07:56:49;107.18;;;43.58;;
58354;SDS011;44160;49.080;19.302;2023-02-10T07:59:15;113.05;;;42.08;;
58354;SDS011;44160;49.080;19.302;2023-02-10T08:01:41;51.80;;;26.20;;
58354;SDS011;44160;49.080;19.302;2023-02-10T08:04:11;87.70;;;36.63;;
58354;SDS011;44160;49.080;19.302;2023-02-10T08:06:38;86.07;;;37.97;;
58354;SDS011;44160;49.080;19.302;2023-02-10T08:09:14;85.25;;;36.10;;
58354;SDS011;44160;49.080;19.302;2023-02-10T08:11:42;96.25;;;38.08;;
58354;SDS011;44160;49.080;19.302;2023-02-10T08:14:11;87.35;;;38.75;;
58354;SDS011;44160;49.080;19.302;2023-02-10T08:16:39;79.05;;;34.65;;
58354;SDS011;44160;49.080;19.302;2023-02-10T08:19:07;93.70;;;38.17;;
58354;SDS011;44160;49.080;19.302;2023-02-10T08:21:33;82.18;;;38.70;;
58354;SDS011;44160;49.080;19.302;2023-02-10T08:23:59;95.43;;;41.03;;
58354;SDS011;44160;49.080;19.302;2023-02-10T08:26:25;99.60;;;41.92;;
58354;SDS011;44160;49.080;19.302;2023-02-10T08:28:51;106.97;;;47.80;;
58354;SDS011;44160;49.080;19.302;2023-02-10T08:31:19;105.90;;;48.10;;
58354;SDS011;44160;49.080;19.302;2023-02-10T08:34:04;98.65;;;47.30;;
58354;SDS011;44160;49.080;19.302;2023-02-10T08:37:08;108.97;;;49.92;;
58354;SDS011;44160;49.080;19.302;2023-02-10T08:39:34;109.80;;;51.00;;
58354;SDS011;44160;49.080;19.302;2023-02-10T08:42:00;108.80;;;49.10;;
58354;SDS011;44160;49.080;19.302;2023-02-10T08:44:26;113.15;;;50.25;;
58354;SDS011;44160;49.080;19.302;2023-02-10T08:46:52;126.70;;;50.25;;
58354;SDS011;44160;49.080;19.302;2023-02-10T08:49:18;109.20;;;46.67;;
58354;SDS011;44160;49.080;19.302;2023-02-10T08:51:44;102.85;;;46.60;;
58354;SDS011;44160;49.080;19.302;2023-02-10T08:54:10;93.45;;;42.83;;
58354;SDS011;44160;49.080;19.302;2023-02-10T08:56:37;102.07;;;43.95;;
58354;SDS011;44160;49.080;19.302;2023-02-10T08:59:03;93.53;;;42.97;;
58354;SDS011;44160;49.080;19.302;2023-02-10T09:01:30;95.57;;;43.85;;
58354;SDS011;44160;49.080;19.302;2023-02-10T09:03:56;100.88;;;43.78;;
58354;SDS011;44160;49.080;19.302;2023-02-10T09:09:25;101.25;;;45.17;;
58354;SDS011;44160;49.080;19.302;2023-02-10T09:11:54;107.57;;;47.67;;
58354;SDS011;44160;49.080;19.302;2023-02-10T09:14:21;121.20;;;51.28;;
58354;SDS011;44160;49.080;19.302;2023-02-10T09:16:47;121.10;;;52.03;;
58354;SDS011;44160;49.080;19.302;2023-02-10T09:19:13;110.53;;;52.65;;
58354;SDS011;44160;49.080;19.302;2023-02-10T09:21:39;108.18;;;48.50;;
58354;SDS011;44160;49.080;19.302;2023-02-10T09:24:05;120.32;;;49.83;;
58354;SDS011;44160;49.080;19.302;2023-02-10T09:26:32;106.68;;;50.95;;
58354;SDS011;44160;49.080;19.302;2023-02-10T09:28:58;102.35;;;50.30;;
58354;SDS011;44160;49.080;19.302;2023-02-10T09:31:24;117.97;;;55.05;;
58354;SDS011;44160;49.080;19.302;2023-02-10T09:33:50;114.00;;;53.35;;
58354;SDS011;44160;49.080;19.302;2023-02-10T09:36:18;112.65;;;53.08;;
58354;SDS011;44160;49.080;19.302;2023-02-10T09:38:45;110.68;;;52.78;;
58354;SDS011;44160;49.080;19.302;2023-02-10T09:44:22;115.05;;;53.55;;
58354;SDS011;44160;49.080;19.302;2023-02-10T09:49:24;115.25;;;52.47;;
58354;SDS011;44160;49.080;19.302;2023-02-10T09:52:00;94.28;;;43.30;;
58354;SDS011;44160;49.080;19.302;2023-02-10T09:54:27;99.05;;;45.72;;
58354;SDS011;44160;49.080;19.302;2023-02-10T09:56:57;86.90;;;42.72;;
58354;SDS011;44160;49.080;19.302;2023-02-10T09:59:23;88.82;;;43.85;;
58354;SDS011;44160;49.080;19.302;2023-02-10T10:02:13;90.45;;;43.70;;
58354;SDS011;44160;49.080;19.302;2023-02-10T10:04:37;91.60;;;42.45;;
58354;SDS011;44160;49.080;19.302;2023-02-10T10:07:19;92.18;;;46.30;;
58354;SDS011;44160;49.080;19.302;2023-02-10T10:09:51;90.65;;;44.70;;
58354;SDS011;44160;49.080;19.302;2023-02-10T10:12:29;95.88;;;44.53;;
58354;SDS011;44160;49.080;19.302;2023-02-10T10:14:55;94.82;;;46.05;;
58354;SDS011;44160;49.080;19.302;2023-02-10T10:28:07;95.35;;;51.33;;
58354;SDS011;44160;49.080;19.302;2023-02-10T10:33:03;82.80;;;45.75;;
58354;SDS011;44160;49.080;19.302;2023-02-10T10:35:40;87.20;;;43.72;;
58354;SDS011;44160;49.080;19.302;2023-02-10T10:38:30;79.07;;;42.03;;
58354;SDS011;44160;49.080;19.302;2023-02-10T10:40:55;75.63;;;40.42;;
58354;SDS011;44160;49.080;19.302;2023-02-10T10:43:47;77.25;;;41.78;;
58354;SDS011;44160;49.080;19.302;2023-02-10T10:46:27;70.57;;;40.03;;
58354;SDS011;44160;49.080;19.302;2023-02-10T10:48:54;81.00;;;42.75;;
58354;SDS011;44160;49.080;19.302;2023-02-10T10:51:33;76.45;;;42.55;;
58354;SDS011;44160;49.080;19.302;2023-02-10T10:54:00;85.70;;;42.92;;
58354;SDS011;44160;49.080;19.302;2023-02-10T11:01:47;77.63;;;41.28;;
58354;SDS011;44160;49.080;19.302;2023-02-10T11:06:40;85.85;;;43.17;;
58354;SDS011;44160;49.080;19.302;2023-02-10T11:09:15;82.85;;;44.08;;
58354;SDS011;44160;49.080;19.302;2023-02-10T11:11:42;89.85;;;48.28;;
58354;SDS011;44160;49.080;19.302;2023-02-10T11:14:22;75.32;;;41.60;;
58354;SDS011;44160;49.080;19.302;2023-02-10T11:16:56;79.53;;;43.88;;
58354;SDS011;44160;49.080;19.302;2023-02-10T11:19:30;87.00;;;41.92;;
58354;SDS011;44160;49.080;19.302;2023-02-10T11:21:56;81.80;;;43.88;;
58354;SDS011;44160;49.080;19.302;2023-02-10T11:24:24;81.68;;;44.03;;
58354;SDS011;44160;49.080;19.302;2023-02-10T11:26:55;80.25;;;41.13;;
58354;SDS011;44160;49.080;19.302;2023-02-10T11:29:21;76.78;;;42.83;;
58354;SDS011;44160;49.080;19.302;2023-02-10T11:31:50;83.25;;;41.38;;
58354;SDS011;44160;49.080;19.302;2023-02-10T11:34:24;79.10;;;43.45;;
58354;SDS011;44160;49.080;19.302;2023-02-10T11:36:54;80.70;;;42.78;;
58354;SDS011;44160;49.080;19.302;2023-02-10T11:41:48;72.28;;;41.30;;
58354;SDS011;44160;49.080;19.302;2023-02-10T11:44:32;78.60;;;40.65;;
58354;SDS011;44160;49.080;19.302;2023-02-10T11:47:00;78.57;;;39.70;;
58354;SDS011;44160;49.080;19.302;2023-02-10T11:49:27;76.45;;;41.80;;
58354;SDS011;44160;49.080;19.302;2023-02-10T11:51:56;75.07;;;40.65;;
58354;SDS011;44160;49.080;19.302;2023-02-10T11:54:23;69.38;;;37.88;;
58354;SDS011;44160;49.080;19.302;2023-02-10T12:05:39;78.65;;;41.42;;
58354;SDS011;44160;49.080;19.302;2023-02-10T12:08:13;83.10;;;42.42;;
58354;SDS011;44160;49.080;19.302;2023-02-10T12:10:46;102.32;;;46.15;;
58354;SDS011;44160;49.080;19.302;2023-02-10T12:13:35;96.78;;;45.63;;
58354;SDS011;44160;49.080;19.302;2023-02-10T12:27:03;89.60;;;44.25;;
58354;SDS011;44160;49.080;19.302;2023-02-10T12:29:15;94.75;;;42.40;;
58354;SDS011;44160;49.080;19.302;2023-02-10T12:40:07;90.93;;;43.90;;
58354;SDS011;44160;49.080;19.302;2023-02-10T12:45:19;114.80;;;49.58;;
58354;SDS011;44160;49.080;19.302;2023-02-10T12:59:49;142.63;;;59.65;;
58354;SDS011;44160;49.080;19.302;2023-02-10T13:08:31;119.45;;;52.15;;
58354;SDS011;44160;49.080;19.302;2023-02-10T13:11:25;112.65;;;50.35;;
58354;SDS011;44160;49.080;19.302;2023-02-10T13:13:58;110.68;;;50.33;;
58354;SDS011;44160;49.080;19.302;2023-02-10T13:16:31;158.10;;;71.00;;
58354;SDS011;44160;49.080;19.302;2023-02-10T13:19:12;113.00;;;51.15;;
58354;SDS011;44160;49.080;19.302;2023-02-10T13:35:26;108.07;;;51.40;;
58354;SDS011;44160;49.080;19.302;2023-02-10T13:37:56;112.18;;;54.22;;
58354;SDS011;44160;49.080;19.302;2023-02-10T13:43:17;102.43;;;48.75;;
58354;SDS011;44160;49.080;19.302;2023-02-10T13:45:53;102.75;;;50.40;;
58354;SDS011;44160;49.080;19.302;2023-02-10T13:48:21;98.00;;;46.53;;
58354;SDS011;44160;49.080;19.302;2023-02-10T13:50:54;111.07;;;52.53;;
58354;SDS011;44160;49.080;19.302;2023-02-10T13:58:26;111.18;;;50.95;;
58354;SDS011;44160;49.080;19.302;2023-02-10T14:00:53;106.18;;;49.45;;
58354;SDS011;44160;49.080;19.302;2023-02-10T14:03:21;107.00;;;49.88;;
58354;SDS011;44160;49.080;19.302;2023-02-10T14:08:36;103.28;;;49.42;;
58354;SDS011;44160;49.080;19.302;2023-02-10T14:13:30;113.53;;;51.42;;
58354;SDS011;44160;49.080;19.302;2023-02-10T14:16:01;124.90;;;52.33;;
58354;SDS011;44160;49.080;19.302;2023-02-10T14:18:29;119.17;;;56.90;;
58354;SDS011;44160;49.080;19.302;2023-02-10T14:20:57;131.10;;;61.50;;
58354;SDS011;44160;49.080;19.302;2023-02-10T14:23:24;146.13;;;66.30;;
58354;SDS011;44160;49.080;19.302;2023-02-10T14:25:54;146.90;;;70.85;;
58354;SDS011;44160;49.080;19.302;2023-02-10T14:28:22;123.20;;;58.28;;
58354;SDS011;44160;49.080;19.302;2023-02-10T14:30:50;125.45;;;59.85;;
58354;SDS011;44160;49.080;19.302;2023-02-10T14:33:24;137.70;;;64.45;;
58354;SDS011;44160;49.080;19.302;2023-02-10T14:35:51;131.35;;;59.45;;
58354;SDS011;44160;49.080;19.302;2023-02-10T14:38:22;112.47;;;51.65;;
58354;SDS011;44160;49.080;19.302;2023-02-10T14:40:48;117.22;;;54.50;;
58354;SDS011;44160;49.080;19.302;2023-02-10T14:43:15;138.90;;;58.05;;
58354;SDS011;44160;49.080;19.302;2023-02-10T14:45:42;120.75;;;57.90;;
58354;SDS011;44160;49.080;19.302;2023-02-10T14:48:11;120.68;;;57.15;;
58354;SDS011;44160;49.080;19.302;2023-02-10T14:50:38;131.75;;;61.47;;
58354;SDS011;44160;49.080;19.302;2023-02-10T14:53:05;134.73;;;60.97;;
58354;SDS011;44160;49.080;19.302;2023-02-10T14:58:05;138.07;;;58.47;;
58354;SDS011;44160;49.080;19.302;2023-02-10T15:00:32;133.02;;;58.53;;
58354;SDS011;44160;49.080;19.302;2023-02-10T15:02:59;133.05;;;62.85;;
58354;SDS011;44160;49.080;19.302;2023-02-10T15:05:26;114.57;;;57.83;;
58354;SDS011;44160;49.080;19.302;2023-02-10T15:07:58;127.50;;;55.65;;
58354;SDS011;44160;49.080;19.302;2023-02-10T15:12:56;126.43;;;59.83;;
58354;SDS011;44160;49.080;19.302;2023-02-10T15:18:05;136.95;;;63.30;;
58354;SDS011;44160;49.080;19.302;2023-02-10T15:20:33;149.38;;;65.72;;
58354;SDS011;44160;49.080;19.302;2023-02-10T15:25:33;154.27;;;70.82;;
58354;SDS011;44160;49.080;19.302;2023-02-10T15:33:24;159.80;;;73.40;;
58354;SDS011;44160;49.080;19.302;2023-02-10T15:35:51;131.23;;;58.10;;
58354;SDS011;44160;49.080;19.302;2023-02-10T15:38:18;114.78;;;50.60;;
58354;SDS011;44160;49.080;19.302;2023-02-10T15:40:51;138.07;;;59.35;;
58354;SDS011;44160;49.080;19.302;2023-02-10T15:45:50;147.93;;;58.45;;
58354;SDS011;44160;49.080;19.302;2023-02-10T15:48:20;132.50;;;62.42;;
58354;SDS011;44160;49.080;19.302;2023-02-10T15:50:46;216.00;;;86.07;;
58354;SDS011;44160;49.080;19.302;2023-02-10T15:53:19;270.25;;;105.82;;
58354;SDS011;44160;49.080;19.302;2023-02-10T15:55:46;259.73;;;103.25;;
58354;SDS011;44160;49.080;19.302;2023-02-10T15:58:13;204.77;;;85.25;;
58354;SDS011;44160;49.080;19.302;2023-02-10T16:00:40;285.88;;;111.20;;
58354;SDS011;44160;49.080;19.302;2023-02-10T16:03:10;281.98;;;111.25;;
58354;SDS011;44160;49.080;19.302;2023-02-10T16:05:40;260.45;;;101.75;;
58354;SDS011;44160;49.080;19.302;2023-02-10T16:08:40;260.58;;;101.88;;
58354;SDS011;44160;49.080;19.302;2023-02-10T16:10:59;258.65;;;96.72;;
58354;SDS011;44160;49.080;19.302;2023-02-10T16:13:25;261.63;;;100.07;;
58354;SDS011;44160;49.080;19.302;2023-02-10T16:15:51;285.10;;;109.93;;
58354;SDS011;44160;49.080;19.302;2023-02-10T16:18:18;268.55;;;105.63;;
58354;SDS011;44160;49.080;19.302;2023-02-10T16:20:45;270.52;;;107.10;;
58354;SDS011;44160;49.080;19.302;2023-02-10T16:23:12;273.17;;;104.88;;
58354;SDS011;44160;49.080;19.302;2023-02-10T16:25:38;211.85;;;82.03;;
58354;SDS011;44160;49.080;19.302;2023-02-10T16:28:05;175.38;;;69.95;;
58354;SDS011;44160;49.080;19.302;2023-02-10T16:30:31;280.73;;;105.03;;
58354;SDS011;44160;49.080;19.302;2023-02-10T16:32:58;275.80;;;107.40;;
58354;SDS011;44160;49.080;19.302;2023-02-10T16:35:24;275.63;;;104.68;;
58354;SDS011;44160;49.080;19.302;2023-02-10T16:37:51;283.75;;;109.63;;
58354;SDS011;44160;49.080;19.302;2023-02-10T16:40:37;274.15;;;101.68;;
58354;SDS011;44160;49.080;19.302;2023-02-10T16:43:06;607.88;;;233.15;;
58354;SDS011;44160;49.080;19.302;2023-02-10T16:45:33;386.80;;;140.52;;
58354;SDS011;44160;49.080;19.302;2023-02-10T16:47:59;505.48;;;194.95;;
58354;SDS011;44160;49.080;19.302;2023-02-10T16:50:29;512.22;;;198.32;;
58354;SDS011;44160;49.080;19.302;2023-02-10T16:52:56;480.23;;;185.43;;
58354;SDS011;44160;49.080;19.302;2023-02-10T16:55:22;443.55;;;170.90;;
58354;SDS011;44160;49.080;19.302;2023-02-10T16:57:48;460.48;;;174.10;;
58354;SDS011;44160;49.080;19.302;2023-02-10T17:00:14;444.45;;;164.82;;
58354;SDS011;44160;49.080;19.302;2023-02-10T17:02:41;290.95;;;110.25;;
58354;SDS011;44160;49.080;19.302;2023-02-10T17:05:08;336.27;;;121.63;;
58354;SDS011;44160;49.080;19.302;2023-02-10T17:07:34;291.10;;;110.60;;
58354;SDS011;44160;49.080;19.302;2023-02-10T17:10:00;296.05;;;112.97;;
58354;SDS011;44160;49.080;19.302;2023-02-10T17:12:26;291.23;;;109.13;;
58354;SDS011;44160;49.080;19.302;2023-02-10T17:14:52;333.60;;;124.80;;
58354;SDS011;44160;49.080;19.302;2023-02-10T17:17:19;241.40;;;90.55;;
58354;SDS011;44160;49.080;19.302;2023-02-10T17:19:45;259.80;;;99.00;;
58354;SDS011;44160;49.080;19.302;2023-02-10T17:22:11;425.00;;;154.38;;
58354;SDS011;44160;49.080;19.302;2023-02-10T17:24:37;429.73;;;160.88;;
58354;SDS011;44160;49.080;19.302;2023-02-10T17:27:03;366.15;;;132.70;;
58354;SDS011;44160;49.080;19.302;2023-02-10T17:29:29;407.75;;;154.00;;
58354;SDS011;44160;49.080;19.302;2023-02-10T17:31:55;362.55;;;130.15;;
58354;SDS011;44160;49.080;19.302;2023-02-10T17:34:21;373.13;;;134.57;;
58354;SDS011;44160;49.080;19.302;2023-02-10T17:36:47;377.70;;;139.18;;
58354;SDS011;44160;49.080;19.302;2023-02-10T17:39:14;316.60;;;116.97;;
58354;SDS011;44160;49.080;19.302;2023-02-10T17:42:00;316.63;;;116.15;;
58354;SDS011;44160;49.080;19.302;2023-02-10T17:44:26;375.70;;;127.63;;
58354;SDS011;44160;49.080;19.302;2023-02-10T17:46:54;320.25;;;113.55;;
58354;SDS011;44160;49.080;19.302;2023-02-10T17:49:28;269.33;;;101.97;;
58354;SDS011;44160;49.080;19.302;2023-02-10T17:52:14;298.02;;;110.30;;
58354;SDS011;44160;49.080;19.302;2023-02-10T17:54:40;320.52;;;113.28;;
58354;SDS011;44160;49.080;19.302;2023-02-10T17:57:06;296.00;;;107.72;;
58354;SDS011;44160;49.080;19.302;2023-02-10T17:59:39;300.80;;;108.45;;
58354;SDS011;44160;49.080;19.302;2023-02-10T18:02:05;281.67;;;111.28;;
58354;SDS011;44160;49.080;19.302;2023-02-10T18:04:32;250.55;;;99.35;;
58354;SDS011;44160;49.080;19.302;2023-02-10T18:06:58;184.48;;;76.75;;
58354;SDS011;44160;49.080;19.302;2023-02-10T18:09:24;189.50;;;78.10;;
58354;SDS011;44160;49.080;19.302;2023-02-10T18:11:52;194.00;;;75.80;;
58354;SDS011;44160;49.080;19.302;2023-02-10T18:14:18;168.05;;;67.63;;
58354;SDS011;44160;49.080;19.302;2023-02-10T18:16:44;135.32;;;56.30;;
58354;SDS011;44160;49.080;19.302;2023-02-10T18:19:10;150.95;;;58.67;;
58354;SDS011;44160;49.080;19.302;2023-02-10T18:21:37;157.00;;;58.15;;
58354;SDS011;44160;49.080;19.302;2023-02-10T18:24:03;152.13;;;56.08;;
58354;SDS011;44160;49.080;19.302;2023-02-10T18:26:29;166.88;;;68.15;;
58354;SDS011;44160;49.080;19.302;2023-02-10T18:29:03;201.13;;;77.75;;
58354;SDS011;44160;49.080;19.302;2023-02-10T18:31:33;277.63;;;92.13;;
58354;SDS011;44160;49.080;19.302;2023-02-10T18:33:59;255.60;;;87.75;;
58354;SDS011;44160;49.080;19.302;2023-02-10T18:36:26;194.55;;;73.30;;
58354;SDS011;44160;49.080;19.302;2023-02-10T18:38:53;282.95;;;93.80;;
58354;SDS011;44160;49.080;19.302;2023-02-10T18:41:19;257.70;;;88.20;;
58354;SDS011;44160;49.080;19.302;2023-02-10T18:47:04;226.80;;;86.78;;
58354;SDS011;44160;49.080;19.302;2023-02-10T18:49:32;249.05;;;89.60;;
58354;SDS011;44160;49.080;19.302;2023-02-10T18:51:58;226.10;;;91.50;;
58354;SDS011;44160;49.080;19.302;2023-02-10T18:54:25;258.95;;;97.55;;
58354;SDS011;44160;49.080;19.302;2023-02-10T18:56:51;239.60;;;91.20;;
58354;SDS011;44160;49.080;19.302;2023-02-10T18:59:17;223.02;;;84.57;;
58354;SDS011;44160;49.080;19.302;2023-02-10T19:01:48;213.93;;;84.53;;
58354;SDS011;44160;49.080;19.302;2023-02-10T19:04:14;189.05;;;75.30;;
58354;SDS011;44160;49.080;19.302;2023-02-10T19:06:40;144.93;;;55.15;;
58354;SDS011;44160;49.080;19.302;2023-02-10T19:09:06;189.10;;;77.70;;
58354;SDS011;44160;49.080;19.302;2023-02-10T19:11:32;187.52;;;70.65;;
58354;SDS011;44160;49.080;19.302;2023-02-10T19:13:58;172.98;;;67.35;;
58354;SDS011;44160;49.080;19.302;2023-02-10T19:16:24;164.38;;;64.30;;
58354;SDS011;44160;49.080;19.302;2023-02-10T19:18:50;186.90;;;68.85;;
58354;SDS011;44160;49.080;19.302;2023-02-10T19:21:16;186.70;;;75.15;;
58354;SDS011;44160;49.080;19.302;2023-02-10T19:23:44;212.93;;;79.13;;
58354;SDS011;44160;49.080;19.302;2023-02-10T19:26:11;195.75;;;75.07;;
58354;SDS011;44160;49.080;19.302;2023-02-10T19:28:38;186.82;;;71.20;;
58354;SDS011;44160;49.080;19.302;2023-02-10T19:31:06;192.38;;;75.63;;
58354;SDS011;44160;49.080;19.302;2023-02-10T19:33:33;190.93;;;76.22;;
58354;SDS011;44160;49.080;19.302;2023-02-10T19:35:59;204.07;;;82.85;;
58354;SDS011;44160;49.080;19.302;2023-02-10T19:38:26;193.70;;;75.93;;
58354;SDS011;44160;49.080;19.302;2023-02-10T19:41:08;164.68;;;68.82;;
58354;SDS011;44160;49.080;19.302;2023-02-10T19:43:38;177.90;;;68.35;;
58354;SDS011;44160;49.080;19.302;2023-02-10T19:46:08;199.20;;;73.60;;
58354;SDS011;44160;49.080;19.302;2023-02-10T19:48:35;205.88;;;77.95;;
58354;SDS011;44160;49.080;19.302;2023-02-10T19:51:11;193.52;;;76.20;;
58354;SDS011;44160;49.080;19.302;2023-02-10T19:53:38;222.38;;;86.35;;
58354;SDS011;44160;49.080;19.302;2023-02-10T19:56:05;215.10;;;80.78;;
58354;SDS011;44160;49.080;19.302;2023-02-10T19:58:31;229.35;;;85.72;;
58354;SDS011;44160;49.080;19.302;2023-02-10T20:01:02;225.82;;;85.05;;
58354;SDS011;44160;49.080;19.302;2023-02-10T20:03:28;204.15;;;81.38;;
58354;SDS011;44160;49.080;19.302;2023-02-10T20:05:58;229.40;;;86.22;;
58354;SDS011;44160;49.080;19.302;2023-02-10T20:08:25;229.25;;;93.13;;
58354;SDS011;44160;49.080;19.302;2023-02-10T20:10:54;261.33;;;103.55;;
58354;SDS011;44160;49.080;19.302;2023-02-10T20:13:21;259.70;;;104.78;;
58354;SDS011;44160;49.080;19.302;2023-02-10T20:15:47;243.77;;;94.85;;
58354;SDS011;44160;49.080;19.302;2023-02-10T20:18:14;228.23;;;92.25;;
58354;SDS011;44160;49.080;19.302;2023-02-10T20:20:55;273.40;;;106.07;;
58354;SDS011;44160;49.080;19.302;2023-02-10T20:23:27;286.55;;;107.00;;
58354;SDS011;44160;49.080;19.302;2023-02-10T20:25:53;271.02;;;107.95;;
58354;SDS011;44160;49.080;19.302;2023-02-10T20:28:19;298.92;;;112.78;;
58354;SDS011;44160;49.080;19.302;2023-02-10T20:30:45;282.67;;;109.57;;
58354;SDS011;44160;49.080;19.302;2023-02-10T20:33:11;288.17;;;106.75;;
58354;SDS011;44160;49.080;19.302;2023-02-10T20:35:38;249.55;;;92.25;;
58354;SDS011;44160;49.080;19.302;2023-02-10T20:38:04;249.18;;;93.07;;
58354;SDS011;44160;49.080;19.302;2023-02-10T20:40:30;218.70;;;87.53;;
58354;SDS011;44160;49.080;19.302;2023-02-10T20:42:56;241.00;;;90.75;;
58354;SDS011;44160;49.080;19.302;2023-02-10T20:45:22;212.43;;;87.43;;
58354;SDS011;44160;49.080;19.302;2023-02-10T20:47:49;195.05;;;83.50;;
58354;SDS011;44160;49.080;19.302;2023-02-10T20:50:15;231.05;;;85.10;;
58354;SDS011;44160;49.080;19.302;2023-02-10T20:52:41;224.90;;;87.60;;
58354;SDS011;44160;49.080;19.302;2023-02-10T20:55:09;187.93;;;78.55;;
58354;SDS011;44160;49.080;19.302;2023-02-10T20:57:35;216.50;;;81.32;;
58354;SDS011;44160;49.080;19.302;2023-02-10T21:00:01;219.43;;;86.63;;
58354;SDS011;44160;49.080;19.302;2023-02-10T21:02:29;209.52;;;86.15;;
58354;SDS011;44160;49.080;19.302;2023-02-10T21:04:56;194.50;;;75.97;;
58354;SDS011;44160;49.080;19.302;2023-02-10T21:07:25;191.13;;;74.63;;
58354;SDS011;44160;49.080;19.302;2023-02-10T21:09:51;193.70;;;70.28;;
58354;SDS011;44160;49.080;19.302;2023-02-10T21:12:18;173.15;;;68.43;;
58354;SDS011;44160;49.080;19.302;2023-02-10T21:14:46;141.18;;;52.85;;
58354;SDS011;44160;49.080;19.302;2023-02-10T21:17:12;154.25;;;56.67;;
58354;SDS011;44160;49.080;19.302;2023-02-10T21:19:38;158.55;;;59.80;;
58354;SDS011;44160;49.080;19.302;2023-02-10T21:22:04;154.75;;;60.95;;
58354;SDS011;44160;49.080;19.302;2023-02-10T21:24:31;154.27;;;60.83;;
58354;SDS011;44160;49.080;19.302;2023-02-10T21:26:59;174.07;;;66.45;;
58354;SDS011;44160;49.080;19.302;2023-02-10T21:29:25;161.57;;;66.75;;
58354;SDS011;44160;49.080;19.302;2023-02-10T21:31:51;155.57;;;61.28;;
58354;SDS011;44160;49.080;19.302;2023-02-10T21:34:17;177.43;;;70.65;;
58354;SDS011;44160;49.080;19.302;2023-02-10T21:36:43;261.08;;;90.60;;
58354;SDS011;44160;49.080;19.302;2023-02-10T21:39:11;201.77;;;80.18;;
58354;SDS011;44160;49.080;19.302;2023-02-10T21:41:37;214.88;;;80.13;;
58354;SDS011;44160;49.080;19.302;2023-02-10T21:44:06;243.82;;;75.72;;
58354;SDS011;44160;49.080;19.302;2023-02-10T21:46:32;204.38;;;76.80;;
58354;SDS011;44160;49.080;19.302;2023-02-10T21:48:58;231.30;;;81.20;;
58354;SDS011;44160;49.080;19.302;2023-02-10T21:51:25;226.63;;;77.30;;
58354;SDS011;44160;49.080;19.302;2023-02-10T21:53:51;242.55;;;85.63;;
58354;SDS011;44160;49.080;19.302;2023-02-10T21:56:17;246.18;;;79.47;;
58354;SDS011;44160;49.080;19.302;2023-02-10T21:58:44;202.85;;;73.95;;
58354;SDS011;44160;49.080;19.302;2023-02-10T22:01:11;222.02;;;74.18;;
58354;SDS011;44160;49.080;19.302;2023-02-10T22:03:37;187.70;;;73.40;;
58354;SDS011;44160;49.080;19.302;2023-02-10T22:06:04;190.07;;;71.63;;
58354;SDS011;44160;49.080;19.302;2023-02-10T22:08:30;188.98;;;69.78;;
58354;SDS011;44160;49.080;19.302;2023-02-10T22:10:58;193.73;;;69.65;;